Straumvik — LEYJ — position and weather

sailwx.info

Track history (hours):
 
Tides and Currents Weather Stations Pressure Air Temp Water Temp Dewpoint Dewpoint Depression Visibility Wind Speed Wind Dir Waves Ship Positions

Straumvik

Last reported at 2015-Mar-24 07:28 UTC. Time now 2015-Mar-29 06:14 UTC.
Position N 59°30' E 005°13'.

Length 50 m; draft 5 m.

Type: Ship. MMSI: 258260000.

Date/timePositionNaut miles runAvg speedWind from/ knotsBaromVisibWave heightAir tempDewpointWater temp
2015-Mar-24 07:28N 59°30' E 005°13'7 7.4
2015-Mar-24 06:33N 59°23' E 005°17'10 7.9
2015-Mar-24 05:20N 59°14' E 005°21'6 7.2
2015-Mar-24 04:33N 59°09' E 005°24'7 6.9
2015-Mar-24 03:33N 59°07' E 005°36'8 7.8
2015-Mar-24 02:33N 59°02' E 005°49'7 7.4
2015-Mar-24 01:33N 58°57' E 005°59'7 7.1
2015-Mar-24 00:33N 58°52' E 006°09'0 0.1
2015-Mar-23 23:20N 58°52' E 006°09'1 0.9
2015-Mar-23 22:31N 58°52' E 006°08'1010.2
2015-Mar-23 21:33N 58°59' E 005°54'9 9.0
2015-Mar-23 20:33N 59°02' E 005°37'7 7.4
2015-Mar-23 19:33N 58°55' E 005°33'12 9.8
2015-Mar-23 18:22N 58°44' E 005°27'16 8.5
2015-Mar-23 16:33N 58°30' E 005°42'6 4.8
2015-Mar-23 15:24N 58°29' E 005°53'0 0.0
2015-Mar-23 14:22N 58°29' E 005°53'0 0.0
2015-Mar-23 13:25N 58°29' E 005°53'0 0.0
2015-Mar-23 12:31N 58°29' E 005°53'0 0.0
2015-Mar-23 11:32N 58°29' E 005°53'0 0.0
2015-Mar-23 10:30N 58°29' E 005°53'0 0.0
2015-Mar-23 09:28N 58°29' E 005°53'0 0.0
2015-Mar-23 08:22N 58°29' E 005°53'0 0.0
2015-Mar-23 03:23N 58°29' E 005°53'0 0.0
2015-Mar-22 22:23N 58°29' E 005°53'4 5.0
2015-Mar-22 21:29N 58°29' E 005°44'20 6.3
2015-Mar-22 18:21N 58°46' E 005°26'4 5.1
2015-Mar-22 17:34N 58°50' E 005°29'6 6.1
2015-Mar-22 16:33N 58°56' E 005°33'7 7.4
2015-Mar-22 15:33N 59°03' E 005°32'7 7.0
2015-Mar-22 14:33N 59°09' E 005°22'15 7.4
2015-Mar-22 12:30N 59°24' E 005°17'  
2015-Mar-19 06:14N 59°30' E 005°13'6 8.6
2015-Mar-19 05:33N 59°24' E 005°16'10 8.5
2015-Mar-19 04:21N 59°14' E 005°21'6 7.7
2015-Mar-19 03:33N 59°08' E 005°24'8 7.9
2015-Mar-19 02:33N 59°06' E 005°39'8 8.1
2015-Mar-19 01:33N 59°01' E 005°51'8 8.2
2015-Mar-19 00:33N 58°55' E 006°02'5 4.8
2015-Mar-18 23:33N 58°52' E 006°09'0 0.0
2015-Mar-18 22:30N 58°52' E 006°09'6 6.2
2015-Mar-18 21:33N 58°56' E 006°01'9 9.4
2015-Mar-18 20:33N 59°03' E 005°50'3 2.8
2015-Mar-18 19:33N 59°05' E 005°47'1 0.6
2015-Mar-18 18:33N 59°05' E 005°47'4 3.8
2015-Mar-18 17:33N 59°05' E 005°40'0 0.0
2015-Mar-18 16:33N 59°05' E 005°40'0 0.0
2015-Mar-18 15:33N 59°05' E 005°40'0 0.0
2015-Mar-18 14:33N 59°05' E 005°40'0 0.0
2015-Mar-18 13:33N 59°05' E 005°40'0 0.0
2015-Mar-18 12:33N 59°05' E 005°40'1 1.1
2015-Mar-18 11:33N 59°06' E 005°42'0 0.0
2015-Mar-18 10:33N 59°06' E 005°42'0 0.0
2015-Mar-18 09:33N 59°06' E 005°42'0 0.0
2015-Mar-18 08:33N 59°06' E 005°42'0 0.0
2015-Mar-18 07:33N 59°06' E 005°42'0 0.0
2015-Mar-18 06:33N 59°06' E 005°42'1 1.0
2015-Mar-18 05:33N 59°06' E 005°40'9 8.7
2015-Mar-18 04:33N 59°08' E 005°24'17 8.1
2015-Mar-18 02:28N 59°24' E 005°15'  
Track history (hours):
 
Tides and Currents Weather Stations Pressure Air Temp Water Temp Dewpoint Dewpoint Depression Visibility Wind Speed Wind Dir Waves Ship Positions

Straumvik

Last reported at 2015-Mar-24 07:28 UTC. Time now 2015-Mar-29 06:14 UTC.
Position N 59°30' E 005°13'.

Length 50 m; draft 5 m.

Type: Ship. MMSI: 258260000.

Date/timePositionNaut miles runAvg speedWind from/ knotsBaromVisibWave heightAir tempDewpointWater temp
2015-Mar-24 07:28N 59°30' E 005°13'7 7.4
2015-Mar-24 06:33N 59°23' E 005°17'10 7.9
2015-Mar-24 05:20N 59°14' E 005°21'6 7.2
2015-Mar-24 04:33N 59°09' E 005°24'7 6.9
2015-Mar-24 03:33N 59°07' E 005°36'8 7.8
2015-Mar-24 02:33N 59°02' E 005°49'7 7.4
2015-Mar-24 01:33N 58°57' E 005°59'7 7.1
2015-Mar-24 00:33N 58°52' E 006°09'0 0.1
2015-Mar-23 23:20N 58°52' E 006°09'1 0.9
2015-Mar-23 22:31N 58°52' E 006°08'1010.2
2015-Mar-23 21:33N 58°59' E 005°54'9 9.0
2015-Mar-23 20:33N 59°02' E 005°37'7 7.4
2015-Mar-23 19:33N 58°55' E 005°33'12 9.8
2015-Mar-23 18:22N 58°44' E 005°27'16 8.5
2015-Mar-23 16:33N 58°30' E 005°42'6 4.8
2015-Mar-23 15:24N 58°29' E 005°53'0 0.0
2015-Mar-23 14:22N 58°29' E 005°53'0 0.0
2015-Mar-23 13:25N 58°29' E 005°53'0 0.0
2015-Mar-23 12:31N 58°29' E 005°53'0 0.0
2015-Mar-23 11:32N 58°29' E 005°53'0 0.0
2015-Mar-23 10:30N 58°29' E 005°53'0 0.0
2015-Mar-23 09:28N 58°29' E 005°53'0 0.0
2015-Mar-23 08:22N 58°29' E 005°53'0 0.0
2015-Mar-23 03:23N 58°29' E 005°53'0 0.0
2015-Mar-22 22:23N 58°29' E 005°53'4 5.0
2015-Mar-22 21:29N 58°29' E 005°44'20 6.3
2015-Mar-22 18:21N 58°46' E 005°26'4 5.1
2015-Mar-22 17:34N 58°50' E 005°29'6 6.1
2015-Mar-22 16:33N 58°56' E 005°33'7 7.4
2015-Mar-22 15:33N 59°03' E 005°32'7 7.0
2015-Mar-22 14:33N 59°09' E 005°22'15 7.4
2015-Mar-22 12:30N 59°24' E 005°17'  
2015-Mar-19 06:14N 59°30' E 005°13'6 8.6
2015-Mar-19 05:33N 59°24' E 005°16'10 8.5
2015-Mar-19 04:21N 59°14' E 005°21'6 7.7
2015-Mar-19 03:33N 59°08' E 005°24'8 7.9
2015-Mar-19 02:33N 59°06' E 005°39'8 8.1
2015-Mar-19 01:33N 59°01' E 005°51'8 8.2
2015-Mar-19 00:33N 58°55' E 006°02'5 4.8
2015-Mar-18 23:33N 58°52' E 006°09'0 0.0
2015-Mar-18 22:30N 58°52' E 006°09'6 6.2
2015-Mar-18 21:33N 58°56' E 006°01'9 9.4
2015-Mar-18 20:33N 59°03' E 005°50'3 2.8
2015-Mar-18 19:33N 59°05' E 005°47'1 0.6
2015-Mar-18 18:33N 59°05' E 005°47'4 3.8
2015-Mar-18 17:33N 59°05' E 005°40'0 0.0
2015-Mar-18 16:33N 59°05' E 005°40'0 0.0
2015-Mar-18 15:33N 59°05' E 005°40'0 0.0
2015-Mar-18 14:33N 59°05' E 005°40'0 0.0
2015-Mar-18 13:33N 59°05' E 005°40'0 0.0
2015-Mar-18 12:33N 59°05' E 005°40'1 1.1
2015-Mar-18 11:33N 59°06' E 005°42'0 0.0
2015-Mar-18 10:33N 59°06' E 005°42'0 0.0
2015-Mar-18 09:33N 59°06' E 005°42'0 0.0
2015-Mar-18 08:33N 59°06' E 005°42'0 0.0
2015-Mar-18 07:33N 59°06' E 005°42'0 0.0
2015-Mar-18 06:33N 59°06' E 005°42'1 1.0
2015-Mar-18 05:33N 59°06' E 005°40'9 8.7
2015-Mar-18 04:33N 59°08' E 005°24'17 8.1
2015-Mar-18 02:28N 59°24' E 005°15'  

Dump ship's entire track history